logo
Search for airport 
image banner adimage banner adimage banner ad
image banner ad

LOGT - Leoben/Timmersdorf

Located in District Leoben, Austria

ICAO - LOGT, IATA -

Data provided by Airmate  

General information

Coordinates: N47°22'47" E14°57'51"
Elevation is 2050 feet MSL.
 
View others Airports in Styria

Operational data

Special qualification required
Current time UTC:
Current local time:
Weather at : LOXZ - Zeltweg ( 26 km )
METAR: LOXZ 281850Z VRB01KT 9999 -RA FEW015 SCT035 BKN060 13/10 Q1020
TAF: TAF LOXZ 281115Z 2812/2821 VRB03KT 9999 FEW010 SCT035 BKN060 TEMPO 2812/2817 07008KT -SHRA
View NOTAMs / SUP AIP / TFR affecting this airport [VIEW]
Communications frequencies: [VIEW]

Runways:

RWY identifierQFULength (ft)Width (ft)SurfaceLDA (ft)
11205198UNK
29205198UNK

Airport contact information

Address: District Leoben Austria

Other aviation service providers

Aviation club (not for profit)

Alpine-Sportflieger-Club Leoben

Alpine-Sportflieger-Club Leoben
office@segelflug.at+43383382504
+43383382504

Satellite view of LOGT